Date,TemperatureHighF,TemperatureAvgF,TemperatureLowF,DewpointHighF,DewpointAvgF,DewpointLowF,HumidityHigh,HumidityAvg,HumidityLow,PressureMaxIn,PressureMinIn,WindSpeedMaxMPH,WindSpeedAvgMPH,GustSpeedMaxMPH,PrecipitationSumIn
2013-3-1,34.3,32.2,30.9,31.9,30.7,29.7,97,94,89,29.63,29.48,6,3,13,0.01
2013-3-2,39.8,33.9,30.8,33.2,31.6,29.8,97,91,74,29.61,29.57,7,3,19,0.14
2013-3-3,40.7,36.0,32.3,36.3,32.7,28.5,98,88,78,29.58,29.48,5,2,12,0.09
2013-3-4,33.4,31.8,30.7,31.4,28.0,25.9,96,86,75,29.63,29.45,10,5,23,0.07
2013-3-5,44.7,37.3,32.6,36.9,33.7,31.6,96,87,67,30.09,29.63,11,5,19,0.02
2013-3-6,38.3,34.6,32.4,33.3,30.3,26.5,94,84,75,30.23,30.09,15,10,28,0.00
2013-3-7,36.2,33.9,30.1,27.9,26.3,25.2,91,74,65,30.18,30.03,17,11,30,0.00
2013-3-8,45.8,36.3,29.0,27.9,24.1,20.2,93,64,38,30.15,29.99,15,10,32,0.03
2013-3-9,45.4,35.5,28.8,33.1,26.1,23.1,81,69,49,30.36,30.15,12,5,22,0.00
2013-3-10,40.0,32.4,23.7,31.6,27.3,21.3,93,82,68,30.41,30.29,7,2,13,0.00
2013-3-11,41.5,38.9,35.8,39.7,36.0,31.6,95,89,83,30.31,30.15,9,5,18,0.00
2013-3-12,45.5,43.1,40.7,45.0,41.7,39.3,98,95,91,30.17,29.74,10,6,22,0.58
2013-3-13,50.0,43.6,32.4,45.1,39.4,27.2,99,86,63,29.74,29.63,11,4,24,0.10
2013-3-14,43.5,31.8,22.5,30.4,24.4,10.9,97,75,44,29.69,29.59,9,3,23,0.00
2013-3-15,37.7,25.1,17.2,20.3,11.7,6.0,92,58,30,29.76,29.58,9,4,21,0.00
2013-3-16,37.7,29.5,21.7,22.2,15.7,9.1,89,59,32,29.87,29.59,8,3,20,0.00
2013-3-17,34.3,24.7,15.8,13.1,7.1,-1.4,85,49,28,30.28,29.87,12,3,23,0.00
2013-3-18,37.0,24.2,10.0,20.3,8.6,-0.7,83,54,24,30.42,30.27,9,2,17,0.00
2013-3-19,32.9,29.4,24.3,29.4,26.2,20.3,97,88,61,30.27,29.60,15,6,30,0.63
2013-3-20,34.3,27.6,20.2,29.3,24.0,18.3,95,86,74,29.70,29.57,8,4,19,0.09
2013-3-21,37.5,31.0,23.3,28.6,23.0,17.6,94,73,45,29.75,29.58,9,2,20,0.00
2013-3-22,39.6,29.9,20.0,25.8,20.5,18.1,95,70,44,29.62,29.55,8,2,16,0.00
2013-3-23,40.6,32.9,26.1,24.8,21.6,17.1,74,63,46,29.61,29.45,12,6,30,0.00
2013-3-24,46.9,37.0,27.8,27.2,25.2,23.3,83,63,42,29.75,29.59,9,3,21,0.00
2013-3-25,45.6,35.5,26.7,36.0,29.2,23.1,92,78,64,29.74,29.56,9,3,16,0.00
2013-3-26,49.0,39.5,31.0,29.2,25.7,23.4,76,59,39,29.69,29.52,9,4,19,0.00
2013-3-27,45.1,37.6,28.6,38.3,31.4,24.4,96,79,59,29.83,29.68,9,3,18,0.11
2013-3-28,50.2,40.3,34.5,36.6,33.8,31.0,95,79,49,29.94,29.82,6,2,15,0.01
2013-3-29,58.3,44.6,32.9,38.0,32.4,28.0,90,65,35,29.98,29.90,9,2,19,0.00
2013-3-30,55.3,41.1,31.2,34.0,29.6,20.9,91,67,27,30.05,29.95,8,2,17,0.00
2013-3-31,50.1,38.8,25.3,38.8,29.7,20.9,88,72,37,30.10,29.86,10,2,21,0.00